sensor_id;sensor_type;location;lat;lon;timestamp;P1;durP1;ratioP1;P2;durP2;ratioP2
14052;SDS011;7101;51.600;7.310;2024-01-11T00:00:29;31.27;;;11.33;;
14052;SDS011;7101;51.600;7.310;2024-01-11T00:02:56;36.37;;;12.57;;
14052;SDS011;7101;51.600;7.310;2024-01-11T00:05:22;32.37;;;11.53;;
14052;SDS011;7101;51.600;7.310;2024-01-11T00:07:51;31.63;;;11.47;;
14052;SDS011;7101;51.600;7.310;2024-01-11T00:10:18;28.97;;;11.57;;
14052;SDS011;7101;51.600;7.310;2024-01-11T00:12:45;29.33;;;12.90;;
14052;SDS011;7101;51.600;7.310;2024-01-11T00:15:12;29.23;;;12.73;;
14052;SDS011;7101;51.600;7.310;2024-01-11T00:17:39;31.70;;;11.27;;
14052;SDS011;7101;51.600;7.310;2024-01-11T00:20:06;26.90;;;11.50;;
14052;SDS011;7101;51.600;7.310;2024-01-11T00:22:34;26.83;;;11.60;;
14052;SDS011;7101;51.600;7.310;2024-01-11T00:25:02;23.83;;;10.43;;
14052;SDS011;7101;51.600;7.310;2024-01-11T00:27:29;25.23;;;11.40;;
14052;SDS011;7101;51.600;7.310;2024-01-11T00:29:56;27.17;;;11.67;;
14052;SDS011;7101;51.600;7.310;2024-01-11T00:32:23;28.80;;;12.53;;
14052;SDS011;7101;51.600;7.310;2024-01-11T00:34:50;32.93;;;12.20;;
14052;SDS011;7101;51.600;7.310;2024-01-11T00:37:17;28.13;;;11.80;;
14052;SDS011;7101;51.600;7.310;2024-01-11T00:39:44;26.00;;;11.27;;
14052;SDS011;7101;51.600;7.310;2024-01-11T00:42:13;28.67;;;11.83;;
14052;SDS011;7101;51.600;7.310;2024-01-11T00:44:40;31.97;;;12.47;;
14052;SDS011;7101;51.600;7.310;2024-01-11T00:47:07;26.23;;;10.57;;
14052;SDS011;7101;51.600;7.310;2024-01-11T00:49:35;32.27;;;11.87;;
14052;SDS011;7101;51.600;7.310;2024-01-11T00:52:03;24.00;;;11.37;;
14052;SDS011;7101;51.600;7.310;2024-01-11T00:54:30;31.10;;;11.80;;
14052;SDS011;7101;51.600;7.310;2024-01-11T00:56:57;32.27;;;11.50;;
14052;SDS011;7101;51.600;7.310;2024-01-11T00:59:25;28.23;;;12.40;;
14052;SDS011;7101;51.600;7.310;2024-01-11T01:01:52;25.50;;;10.60;;
14052;SDS011;7101;51.600;7.310;2024-01-11T01:04:19;28.77;;;11.67;;
14052;SDS011;7101;51.600;7.310;2024-01-11T01:06:45;30.00;;;11.13;;
14052;SDS011;7101;51.600;7.310;2024-01-11T01:09:13;30.97;;;12.07;;
14052;SDS011;7101;51.600;7.310;2024-01-11T01:11:40;28.03;;;11.43;;
14052;SDS011;7101;51.600;7.310;2024-01-11T01:14:07;25.70;;;10.67;;
14052;SDS011;7101;51.600;7.310;2024-01-11T01:16:35;29.03;;;11.47;;
14052;SDS011;7101;51.600;7.310;2024-01-11T01:19:01;26.10;;;11.07;;
14052;SDS011;7101;51.600;7.310;2024-01-11T01:21:28;26.00;;;11.23;;
14052;SDS011;7101;51.600;7.310;2024-01-11T01:23:56;29.83;;;12.00;;
14052;SDS011;7101;51.600;7.310;2024-01-11T01:26:23;30.97;;;11.20;;
14052;SDS011;7101;51.600;7.310;2024-01-11T01:28:50;30.27;;;12.43;;
14052;SDS011;7101;51.600;7.310;2024-01-11T01:31:16;28.83;;;11.53;;
14052;SDS011;7101;51.600;7.310;2024-01-11T01:33:45;31.70;;;12.03;;
14052;SDS011;7101;51.600;7.310;2024-01-11T01:36:11;29.77;;;11.63;;
14052;SDS011;7101;51.600;7.310;2024-01-11T01:38:38;26.97;;;11.10;;
14052;SDS011;7101;51.600;7.310;2024-01-11T01:41:05;30.90;;;11.70;;
14052;SDS011;7101;51.600;7.310;2024-01-11T01:43:32;27.53;;;12.07;;
14052;SDS011;7101;51.600;7.310;2024-01-11T01:45:59;26.03;;;10.70;;
14052;SDS011;7101;51.600;7.310;2024-01-11T01:48:26;25.70;;;11.00;;
14052;SDS011;7101;51.600;7.310;2024-01-11T01:50:55;25.90;;;10.73;;
14052;SDS011;7101;51.600;7.310;2024-01-11T01:53:22;25.83;;;11.20;;
14052;SDS011;7101;51.600;7.310;2024-01-11T01:55:53;31.03;;;11.90;;
14052;SDS011;7101;51.600;7.310;2024-01-11T01:58:20;33.77;;;11.83;;
14052;SDS011;7101;51.600;7.310;2024-01-11T02:00:48;26.93;;;11.77;;
14052;SDS011;7101;51.600;7.310;2024-01-11T02:03:16;27.00;;;11.40;;
14052;SDS011;7101;51.600;7.310;2024-01-11T02:05:44;34.93;;;11.97;;
14052;SDS011;7101;51.600;7.310;2024-01-11T02:08:15;30.87;;;11.53;;
14052;SDS011;7101;51.600;7.310;2024-01-11T02:10:43;26.50;;;11.40;;
14052;SDS011;7101;51.600;7.310;2024-01-11T02:13:11;31.37;;;11.57;;
14052;SDS011;7101;51.600;7.310;2024-01-11T02:15:37;30.97;;;12.10;;
14052;SDS011;7101;51.600;7.310;2024-01-11T02:18:04;29.40;;;12.43;;
14052;SDS011;7101;51.600;7.310;2024-01-11T02:20:31;31.40;;;11.70;;
14052;SDS011;7101;51.600;7.310;2024-01-11T02:23:01;31.57;;;11.73;;
14052;SDS011;7101;51.600;7.310;2024-01-11T02:25:33;34.63;;;11.37;;
14052;SDS011;7101;51.600;7.310;2024-01-11T02:28:00;28.00;;;11.57;;
14052;SDS011;7101;51.600;7.310;2024-01-11T02:30:26;33.13;;;11.83;;
14052;SDS011;7101;51.600;7.310;2024-01-11T02:32:53;27.67;;;12.37;;
14052;SDS011;7101;51.600;7.310;2024-01-11T02:35:20;27.73;;;11.33;;
14052;SDS011;7101;51.600;7.310;2024-01-11T02:37:48;32.83;;;11.83;;
14052;SDS011;7101;51.600;7.310;2024-01-11T02:40:14;32.03;;;11.13;;
14052;SDS011;7101;51.600;7.310;2024-01-11T02:42:43;27.87;;;12.37;;
14052;SDS011;7101;51.600;7.310;2024-01-11T02:45:10;23.67;;;11.20;;
14052;SDS011;7101;51.600;7.310;2024-01-11T02:47:37;29.83;;;12.73;;
14052;SDS011;7101;51.600;7.310;2024-01-11T02:50:05;29.03;;;12.03;;
14052;SDS011;7101;51.600;7.310;2024-01-11T02:52:33;32.07;;;12.57;;
14052;SDS011;7101;51.600;7.310;2024-01-11T02:54:59;33.87;;;12.00;;
14052;SDS011;7101;51.600;7.310;2024-01-11T02:57:25;33.70;;;12.47;;
14052;SDS011;7101;51.600;7.310;2024-01-11T02:59:53;26.97;;;12.13;;
14052;SDS011;7101;51.600;7.310;2024-01-11T03:02:20;30.93;;;12.03;;
14052;SDS011;7101;51.600;7.310;2024-01-11T03:04:47;31.20;;;12.23;;
14052;SDS011;7101;51.600;7.310;2024-01-11T03:07:14;31.13;;;12.40;;
14052;SDS011;7101;51.600;7.310;2024-01-11T03:09:41;31.33;;;11.13;;
14052;SDS011;7101;51.600;7.310;2024-01-11T03:12:08;30.43;;;12.20;;
14052;SDS011;7101;51.600;7.310;2024-01-11T03:14:35;32.63;;;11.90;;
14052;SDS011;7101;51.600;7.310;2024-01-11T03:17:03;33.10;;;12.60;;
14052;SDS011;7101;51.600;7.310;2024-01-11T03:19:30;33.27;;;12.27;;
14052;SDS011;7101;51.600;7.310;2024-01-11T03:21:57;26.90;;;11.67;;
14052;SDS011;7101;51.600;7.310;2024-01-11T03:24:28;29.87;;;11.40;;
14052;SDS011;7101;51.600;7.310;2024-01-11T03:26:55;25.93;;;10.23;;
14052;SDS011;7101;51.600;7.310;2024-01-11T03:29:22;28.90;;;10.70;;
14052;SDS011;7101;51.600;7.310;2024-01-11T03:31:48;28.27;;;12.37;;
14052;SDS011;7101;51.600;7.310;2024-01-11T03:34:16;31.00;;;13.10;;
14052;SDS011;7101;51.600;7.310;2024-01-11T03:36:43;29.80;;;12.03;;
14052;SDS011;7101;51.600;7.310;2024-01-11T03:39:10;31.17;;;12.07;;
14052;SDS011;7101;51.600;7.310;2024-01-11T03:41:37;33.27;;;12.23;;
14052;SDS011;7101;51.600;7.310;2024-01-11T03:44:08;28.43;;;11.80;;
14052;SDS011;7101;51.600;7.310;2024-01-11T03:46:35;28.67;;;12.27;;
14052;SDS011;7101;51.600;7.310;2024-01-11T03:49:02;29.90;;;11.53;;
14052;SDS011;7101;51.600;7.310;2024-01-11T03:51:30;38.70;;;12.33;;
14052;SDS011;7101;51.600;7.310;2024-01-11T03:53:57;28.07;;;11.40;;
14052;SDS011;7101;51.600;7.310;2024-01-11T03:56:24;32.27;;;12.63;;
14052;SDS011;7101;51.600;7.310;2024-01-11T03:58:50;34.70;;;11.87;;
14052;SDS011;7101;51.600;7.310;2024-01-11T04:01:21;27.03;;;11.27;;
14052;SDS011;7101;51.600;7.310;2024-01-11T04:03:48;37.37;;;12.83;;
14052;SDS011;7101;51.600;7.310;2024-01-11T04:06:19;28.47;;;11.73;;
14052;SDS011;7101;51.600;7.310;2024-01-11T04:08:48;30.27;;;12.10;;
14052;SDS011;7101;51.600;7.310;2024-01-11T04:11:15;27.37;;;12.20;;
14052;SDS011;7101;51.600;7.310;2024-01-11T04:13:42;28.13;;;10.60;;
14052;SDS011;7101;51.600;7.310;2024-01-11T04:16:09;30.07;;;11.07;;
14052;SDS011;7101;51.600;7.310;2024-01-11T04:18:36;24.87;;;11.13;;
14052;SDS011;7101;51.600;7.310;2024-01-11T04:21:03;32.87;;;11.20;;
14052;SDS011;7101;51.600;7.310;2024-01-11T04:23:30;26.20;;;10.47;;
14052;SDS011;7101;51.600;7.310;2024-01-11T04:25:58;30.23;;;11.13;;
14052;SDS011;7101;51.600;7.310;2024-01-11T04:28:25;30.30;;;11.73;;
14052;SDS011;7101;51.600;7.310;2024-01-11T04:30:52;34.40;;;12.23;;
14052;SDS011;7101;51.600;7.310;2024-01-11T04:33:18;33.40;;;12.63;;
14052;SDS011;7101;51.600;7.310;2024-01-11T04:35:45;30.97;;;12.77;;
14052;SDS011;7101;51.600;7.310;2024-01-11T04:38:12;26.67;;;11.00;;
14052;SDS011;7101;51.600;7.310;2024-01-11T04:40:39;28.07;;;11.37;;
14052;SDS011;7101;51.600;7.310;2024-01-11T04:43:07;30.07;;;11.27;;
14052;SDS011;7101;51.600;7.310;2024-01-11T04:45:34;31.90;;;11.07;;
14052;SDS011;7101;51.600;7.310;2024-01-11T04:48:00;28.50;;;11.37;;
14052;SDS011;7101;51.600;7.310;2024-01-11T04:50:27;29.77;;;10.93;;
14052;SDS011;7101;51.600;7.310;2024-01-11T04:52:54;30.07;;;11.53;;
14052;SDS011;7101;51.600;7.310;2024-01-11T04:55:21;28.40;;;11.37;;
14052;SDS011;7101;51.600;7.310;2024-01-11T04:57:48;25.53;;;11.00;;
14052;SDS011;7101;51.600;7.310;2024-01-11T05:00:16;29.13;;;11.83;;
14052;SDS011;7101;51.600;7.310;2024-01-11T05:02:43;30.40;;;11.27;;
14052;SDS011;7101;51.600;7.310;2024-01-11T05:05:10;29.67;;;11.37;;
14052;SDS011;7101;51.600;7.310;2024-01-11T05:07:37;31.63;;;11.50;;
14052;SDS011;7101;51.600;7.310;2024-01-11T05:10:04;32.93;;;13.00;;
14052;SDS011;7101;51.600;7.310;2024-01-11T05:12:32;31.77;;;11.63;;
14052;SDS011;7101;51.600;7.310;2024-01-11T05:14:59;33.93;;;11.20;;
14052;SDS011;7101;51.600;7.310;2024-01-11T05:17:27;30.77;;;11.50;;
14052;SDS011;7101;51.600;7.310;2024-01-11T05:19:54;26.97;;;10.60;;
14052;SDS011;7101;51.600;7.310;2024-01-11T05:22:20;28.33;;;11.43;;
14052;SDS011;7101;51.600;7.310;2024-01-11T05:24:47;32.10;;;11.43;;
14052;SDS011;7101;51.600;7.310;2024-01-11T05:27:14;22.93;;;9.93;;
14052;SDS011;7101;51.600;7.310;2024-01-11T05:29:41;34.80;;;12.67;;
14052;SDS011;7101;51.600;7.310;2024-01-11T05:32:08;24.70;;;11.27;;
14052;SDS011;7101;51.600;7.310;2024-01-11T05:34:36;31.70;;;11.53;;
14052;SDS011;7101;51.600;7.310;2024-01-11T05:37:03;27.03;;;10.97;;
14052;SDS011;7101;51.600;7.310;2024-01-11T05:39:30;25.13;;;11.20;;
14052;SDS011;7101;51.600;7.310;2024-01-11T05:41:57;28.27;;;11.40;;
14052;SDS011;7101;51.600;7.310;2024-01-11T05:44:24;31.77;;;12.87;;
14052;SDS011;7101;51.600;7.310;2024-01-11T05:46:50;32.53;;;12.73;;
14052;SDS011;7101;51.600;7.310;2024-01-11T05:49:17;25.07;;;11.50;;
14052;SDS011;7101;51.600;7.310;2024-01-11T05:51:45;29.20;;;12.13;;
14052;SDS011;7101;51.600;7.310;2024-01-11T05:54:12;26.97;;;12.20;;
14052;SDS011;7101;51.600;7.310;2024-01-11T05:56:39;25.97;;;10.73;;
14052;SDS011;7101;51.600;7.310;2024-01-11T05:59:05;33.33;;;11.60;;
14052;SDS011;7101;51.600;7.310;2024-01-11T06:01:32;25.10;;;11.07;;
14052;SDS011;7101;51.600;7.310;2024-01-11T06:03:59;31.40;;;11.57;;
14052;SDS011;7101;51.600;7.310;2024-01-11T06:06:27;27.00;;;10.97;;
14052;SDS011;7101;51.600;7.310;2024-01-11T06:08:56;29.20;;;11.97;;
14052;SDS011;7101;51.600;7.310;2024-01-11T06:11:23;26.47;;;11.40;;
14052;SDS011;7101;51.600;7.310;2024-01-11T06:13:50;35.03;;;13.17;;
14052;SDS011;7101;51.600;7.310;2024-01-11T06:16:19;25.10;;;10.37;;
14052;SDS011;7101;51.600;7.310;2024-01-11T06:18:45;29.40;;;11.23;;
14052;SDS011;7101;51.600;7.310;2024-01-11T06:21:12;28.13;;;11.07;;
14052;SDS011;7101;51.600;7.310;2024-01-11T06:23:40;30.27;;;10.53;;
14052;SDS011;7101;51.600;7.310;2024-01-11T06:26:08;32.90;;;12.10;;
14052;SDS011;7101;51.600;7.310;2024-01-11T06:28:35;26.53;;;11.50;;
14052;SDS011;7101;51.600;7.310;2024-01-11T06:31:02;35.97;;;12.63;;
14052;SDS011;7101;51.600;7.310;2024-01-11T06:33:29;22.63;;;10.80;;
14052;SDS011;7101;51.600;7.310;2024-01-11T06:35:58;30.13;;;11.43;;
14052;SDS011;7101;51.600;7.310;2024-01-11T06:38:24;25.53;;;10.53;;
14052;SDS011;7101;51.600;7.310;2024-01-11T06:40:51;29.90;;;12.07;;
14052;SDS011;7101;51.600;7.310;2024-01-11T06:43:19;26.83;;;11.33;;
14052;SDS011;7101;51.600;7.310;2024-01-11T06:45:46;32.40;;;11.03;;
14052;SDS011;7101;51.600;7.310;2024-01-11T06:48:13;30.77;;;12.07;;
14052;SDS011;7101;51.600;7.310;2024-01-11T06:50:40;27.93;;;11.60;;
14052;SDS011;7101;51.600;7.310;2024-01-11T06:53:06;30.60;;;12.70;;
14052;SDS011;7101;51.600;7.310;2024-01-11T06:55:35;26.63;;;10.53;;
14052;SDS011;7101;51.600;7.310;2024-01-11T06:58:04;28.33;;;10.77;;
14052;SDS011;7101;51.600;7.310;2024-01-11T07:00:32;33.10;;;11.90;;
14052;SDS011;7101;51.600;7.310;2024-01-11T07:02:59;26.20;;;10.83;;
14052;SDS011;7101;51.600;7.310;2024-01-11T07:05:26;23.23;;;11.00;;
14052;SDS011;7101;51.600;7.310;2024-01-11T07:07:53;28.20;;;11.00;;
14052;SDS011;7101;51.600;7.310;2024-01-11T07:10:19;27.20;;;11.33;;
14052;SDS011;7101;51.600;7.310;2024-01-11T07:12:46;29.57;;;11.07;;
14052;SDS011;7101;51.600;7.310;2024-01-11T07:15:13;30.27;;;11.83;;
14052;SDS011;7101;51.600;7.310;2024-01-11T07:17:42;32.87;;;11.77;;
14052;SDS011;7101;51.600;7.310;2024-01-11T07:20:09;26.77;;;11.30;;
14052;SDS011;7101;51.600;7.310;2024-01-11T07:22:38;30.07;;;11.13;;
14052;SDS011;7101;51.600;7.310;2024-01-11T07:25:05;23.63;;;10.80;;
14052;SDS011;7101;51.600;7.310;2024-01-11T07:27:32;33.17;;;11.63;;
14052;SDS011;7101;51.600;7.310;2024-01-11T07:30:00;31.13;;;11.80;;
14052;SDS011;7101;51.600;7.310;2024-01-11T07:32:27;30.93;;;11.47;;
14052;SDS011;7101;51.600;7.310;2024-01-11T07:34:55;24.90;;;11.10;;
14052;SDS011;7101;51.600;7.310;2024-01-11T07:37:22;24.97;;;10.53;;
14052;SDS011;7101;51.600;7.310;2024-01-11T07:39:50;30.37;;;11.40;;
14052;SDS011;7101;51.600;7.310;2024-01-11T07:42:17;32.10;;;11.37;;
14052;SDS011;7101;51.600;7.310;2024-01-11T07:44:44;28.57;;;11.97;;
14052;SDS011;7101;51.600;7.310;2024-01-11T07:47:11;31.20;;;11.37;;
14052;SDS011;7101;51.600;7.310;2024-01-11T07:49:38;29.93;;;12.37;;
14052;SDS011;7101;51.600;7.310;2024-01-11T07:52:07;28.27;;;11.63;;
14052;SDS011;7101;51.600;7.310;2024-01-11T07:54:34;30.40;;;11.53;;
14052;SDS011;7101;51.600;7.310;2024-01-11T07:57:01;33.50;;;12.23;;
14052;SDS011;7101;51.600;7.310;2024-01-11T07:59:32;26.03;;;11.03;;
14052;SDS011;7101;51.600;7.310;2024-01-11T08:02:01;31.23;;;12.27;;
14052;SDS011;7101;51.600;7.310;2024-01-11T08:04:29;30.10;;;11.70;;
14052;SDS011;7101;51.600;7.310;2024-01-11T08:06:56;29.27;;;11.73;;
14052;SDS011;7101;51.600;7.310;2024-01-11T08:09:26;35.67;;;12.77;;
14052;SDS011;7101;51.600;7.310;2024-01-11T08:11:52;36.57;;;13.27;;
14052;SDS011;7101;51.600;7.310;2024-01-11T08:14:19;39.87;;;14.40;;
14052;SDS011;7101;51.600;7.310;2024-01-11T08:16:46;31.50;;;12.33;;
14052;SDS011;7101;51.600;7.310;2024-01-11T08:19:13;28.50;;;11.83;;
14052;SDS011;7101;51.600;7.310;2024-01-11T08:21:40;30.03;;;11.80;;
14052;SDS011;7101;51.600;7.310;2024-01-11T08:24:07;31.33;;;13.03;;
14052;SDS011;7101;51.600;7.310;2024-01-11T08:26:36;26.77;;;11.67;;
14052;SDS011;7101;51.600;7.310;2024-01-11T08:29:03;25.70;;;11.13;;
14052;SDS011;7101;51.600;7.310;2024-01-11T08:31:30;26.53;;;10.63;;
14052;SDS011;7101;51.600;7.310;2024-01-11T08:33:57;24.70;;;10.40;;
14052;SDS011;7101;51.600;7.310;2024-01-11T08:36:24;29.87;;;10.57;;
14052;SDS011;7101;51.600;7.310;2024-01-11T08:38:56;25.57;;;10.37;;
14052;SDS011;7101;51.600;7.310;2024-01-11T08:41:23;23.67;;;10.30;;
14052;SDS011;7101;51.600;7.310;2024-01-11T08:43:51;23.60;;;10.63;;
14052;SDS011;7101;51.600;7.310;2024-01-11T08:46:23;27.80;;;10.40;;
14052;SDS011;7101;51.600;7.310;2024-01-11T08:48:50;27.43;;;10.43;;
14052;SDS011;7101;51.600;7.310;2024-01-11T08:51:17;26.37;;;10.87;;
14052;SDS011;7101;51.600;7.310;2024-01-11T08:53:44;27.97;;;11.17;;
14052;SDS011;7101;51.600;7.310;2024-01-11T08:56:11;28.57;;;10.70;;
14052;SDS011;7101;51.600;7.310;2024-01-11T08:58:39;23.10;;;10.40;;
14052;SDS011;7101;51.600;7.310;2024-01-11T09:01:08;27.10;;;10.40;;
14052;SDS011;7101;51.600;7.310;2024-01-11T09:03:38;28.70;;;11.17;;
14052;SDS011;7101;51.600;7.310;2024-01-11T09:06:05;29.93;;;11.13;;
14052;SDS011;7101;51.600;7.310;2024-01-11T09:08:32;24.37;;;11.03;;
14052;SDS011;7101;51.600;7.310;2024-01-11T09:10:59;26.00;;;10.90;;
14052;SDS011;7101;51.600;7.310;2024-01-11T09:13:26;27.17;;;10.67;;
14052;SDS011;7101;51.600;7.310;2024-01-11T09:15:53;27.97;;;10.30;;
14052;SDS011;7101;51.600;7.310;2024-01-11T09:18:22;25.53;;;10.60;;
14052;SDS011;7101;51.600;7.310;2024-01-11T09:20:48;28.87;;;11.93;;
14052;SDS011;7101;51.600;7.310;2024-01-11T09:23:15;28.20;;;11.13;;
14052;SDS011;7101;51.600;7.310;2024-01-11T09:25:43;33.43;;;11.93;;
14052;SDS011;7101;51.600;7.310;2024-01-11T09:28:10;22.97;;;11.00;;
14052;SDS011;7101;51.600;7.310;2024-01-11T09:30:37;24.50;;;11.23;;
14052;SDS011;7101;51.600;7.310;2024-01-11T09:33:04;24.53;;;10.83;;
14052;SDS011;7101;51.600;7.310;2024-01-11T09:35:32;33.47;;;10.47;;
14052;SDS011;7101;51.600;7.310;2024-01-11T09:37:59;27.70;;;11.00;;
14052;SDS011;7101;51.600;7.310;2024-01-11T09:40:26;26.60;;;11.30;;
14052;SDS011;7101;51.600;7.310;2024-01-11T09:42:53;29.37;;;11.87;;
14052;SDS011;7101;51.600;7.310;2024-01-11T09:45:20;29.63;;;12.03;;
14052;SDS011;7101;51.600;7.310;2024-01-11T09:47:47;30.13;;;11.20;;
14052;SDS011;7101;51.600;7.310;2024-01-11T09:50:16;27.40;;;10.83;;
14052;SDS011;7101;51.600;7.310;2024-01-11T09:52:46;31.00;;;12.73;;
14052;SDS011;7101;51.600;7.310;2024-01-11T09:55:13;27.47;;;11.97;;
14052;SDS011;7101;51.600;7.310;2024-01-11T09:57:41;27.63;;;11.67;;
14052;SDS011;7101;51.600;7.310;2024-01-11T10:00:11;33.90;;;13.73;;
14052;SDS011;7101;51.600;7.310;2024-01-11T10:02:43;34.97;;;12.90;;
14052;SDS011;7101;51.600;7.310;2024-01-11T10:05:11;29.57;;;11.67;;
14052;SDS011;7101;51.600;7.310;2024-01-11T10:07:39;29.60;;;13.03;;
14052;SDS011;7101;51.600;7.310;2024-01-11T10:10:08;31.27;;;12.53;;
14052;SDS011;7101;51.600;7.310;2024-01-11T10:12:35;31.83;;;12.97;;
14052;SDS011;7101;51.600;7.310;2024-01-11T10:15:05;28.57;;;11.73;;
14052;SDS011;7101;51.600;7.310;2024-01-11T10:17:34;31.43;;;11.97;;
14052;SDS011;7101;51.600;7.310;2024-01-11T10:20:02;28.63;;;12.57;;
14052;SDS011;7101;51.600;7.310;2024-01-11T10:22:29;31.50;;;12.37;;
14052;SDS011;7101;51.600;7.310;2024-01-11T10:25:10;31.30;;;13.23;;
14052;SDS011;7101;51.600;7.310;2024-01-11T10:27:39;27.47;;;12.00;;
14052;SDS011;7101;51.600;7.310;2024-01-11T10:30:08;29.60;;;11.73;;
14052;SDS011;7101;51.600;7.310;2024-01-11T10:32:38;33.20;;;13.37;;
14052;SDS011;7101;51.600;7.310;2024-01-11T10:35:05;29.93;;;12.70;;
14052;SDS011;7101;51.600;7.310;2024-01-11T10:37:32;30.10;;;13.48;;
14052;SDS011;7101;51.600;7.310;2024-01-11T10:40:01;31.48;;;13.00;;
14052;SDS011;7101;51.600;7.310;2024-01-11T10:42:35;32.40;;;13.07;;
14052;SDS011;7101;51.600;7.310;2024-01-11T10:45:06;25.40;;;11.93;;
14052;SDS011;7101;51.600;7.310;2024-01-11T10:47:39;29.15;;;13.45;;
14052;SDS011;7101;51.600;7.310;2024-01-11T10:50:13;27.80;;;12.90;;
14052;SDS011;7101;51.600;7.310;2024-01-11T10:52:45;31.48;;;13.73;;
14052;SDS011;7101;51.600;7.310;2024-01-11T10:55:20;33.83;;;13.75;;
14052;SDS011;7101;51.600;7.310;2024-01-11T10:57:50;34.20;;;13.52;;
14052;SDS011;7101;51.600;7.310;2024-01-11T11:00:17;31.00;;;14.80;;
14052;SDS011;7101;51.600;7.310;2024-01-11T11:02:45;33.55;;;13.88;;
14052;SDS011;7101;51.600;7.310;2024-01-11T11:05:13;29.55;;;13.43;;
14052;SDS011;7101;51.600;7.310;2024-01-11T11:07:42;34.85;;;14.00;;
14052;SDS011;7101;51.600;7.310;2024-01-11T11:10:09;37.30;;;14.30;;
14052;SDS011;7101;51.600;7.310;2024-01-11T11:12:38;26.33;;;13.15;;
14052;SDS011;7101;51.600;7.310;2024-01-11T11:15:09;28.30;;;13.45;;
14052;SDS011;7101;51.600;7.310;2024-01-11T11:17:37;30.08;;;13.07;;
14052;SDS011;7101;51.600;7.310;2024-01-11T11:20:05;33.95;;;14.30;;
14052;SDS011;7101;51.600;7.310;2024-01-11T11:22:34;31.65;;;14.00;;
14052;SDS011;7101;51.600;7.310;2024-01-11T11:25:04;28.50;;;12.15;;
14052;SDS011;7101;51.600;7.310;2024-01-11T11:27:33;30.70;;;13.23;;
14052;SDS011;7101;51.600;7.310;2024-01-11T11:29:59;35.50;;;13.75;;
14052;SDS011;7101;51.600;7.310;2024-01-11T11:32:37;30.92;;;12.70;;
14052;SDS011;7101;51.600;7.310;2024-01-11T11:35:04;37.67;;;14.15;;
14052;SDS011;7101;51.600;7.310;2024-01-11T11:37:33;25.02;;;12.43;;
14052;SDS011;7101;51.600;7.310;2024-01-11T11:40:02;27.02;;;12.18;;
14052;SDS011;7101;51.600;7.310;2024-01-11T11:42:31;34.38;;;13.63;;
14052;SDS011;7101;51.600;7.310;2024-01-11T11:44:59;29.80;;;12.20;;
14052;SDS011;7101;51.600;7.310;2024-01-11T11:47:32;24.33;;;11.90;;
14052;SDS011;7101;51.600;7.310;2024-01-11T11:50:05;27.77;;;11.55;;
14052;SDS011;7101;51.600;7.310;2024-01-11T11:52:34;25.05;;;11.18;;
14052;SDS011;7101;51.600;7.310;2024-01-11T11:55:02;31.35;;;11.98;;
14052;SDS011;7101;51.600;7.310;2024-01-11T11:57:30;30.17;;;12.52;;
14052;SDS011;7101;51.600;7.310;2024-01-11T11:59:57;27.13;;;11.38;;
14052;SDS011;7101;51.600;7.310;2024-01-11T12:02:25;26.63;;;11.48;;
14052;SDS011;7101;51.600;7.310;2024-01-11T12:04:53;31.13;;;11.23;;
14052;SDS011;7101;51.600;7.310;2024-01-11T12:07:22;29.45;;;12.38;;
14052;SDS011;7101;51.600;7.310;2024-01-11T12:09:49;26.45;;;12.05;;
14052;SDS011;7101;51.600;7.310;2024-01-11T12:12:17;23.35;;;11.05;;
14052;SDS011;7101;51.600;7.310;2024-01-11T12:14:46;26.15;;;11.38;;
14052;SDS011;7101;51.600;7.310;2024-01-11T12:17:12;28.13;;;11.95;;
14052;SDS011;7101;51.600;7.310;2024-01-11T12:19:39;26.25;;;11.38;;
14052;SDS011;7101;51.600;7.310;2024-01-11T12:22:06;26.38;;;10.23;;
14052;SDS011;7101;51.600;7.310;2024-01-11T12:24:34;26.15;;;10.95;;
14052;SDS011;7101;51.600;7.310;2024-01-11T12:27:01;23.65;;;9.90;;
14052;SDS011;7101;51.600;7.310;2024-01-11T12:29:29;27.65;;;11.07;;
14052;SDS011;7101;51.600;7.310;2024-01-11T12:31:56;25.85;;;11.32;;
14052;SDS011;7101;51.600;7.310;2024-01-11T12:34:24;22.58;;;10.63;;
14052;SDS011;7101;51.600;7.310;2024-01-11T12:36:51;21.23;;;9.15;;
14052;SDS011;7101;51.600;7.310;2024-01-11T12:39:19;29.95;;;11.05;;
14052;SDS011;7101;51.600;7.310;2024-01-11T12:41:48;20.17;;;9.82;;
14052;SDS011;7101;51.600;7.310;2024-01-11T12:44:17;23.77;;;11.32;;
14052;SDS011;7101;51.600;7.310;2024-01-11T12:46:47;25.85;;;11.05;;
14052;SDS011;7101;51.600;7.310;2024-01-11T12:49:15;22.20;;;10.05;;
14052;SDS011;7101;51.600;7.310;2024-01-11T12:51:42;23.40;;;11.10;;
14052;SDS011;7101;51.600;7.310;2024-01-11T12:54:10;25.27;;;11.43;;
14052;SDS011;7101;51.600;7.310;2024-01-11T12:56:41;24.52;;;10.68;;
14052;SDS011;7101;51.600;7.310;2024-01-11T12:59:10;25.52;;;10.60;;
14052;SDS011;7101;51.600;7.310;2024-01-11T13:01:37;20.73;;;10.43;;
14052;SDS011;7101;51.600;7.310;2024-01-11T13:04:05;21.77;;;10.05;;
14052;SDS011;7101;51.600;7.310;2024-01-11T13:06:34;25.05;;;10.85;;
14052;SDS011;7101;51.600;7.310;2024-01-11T13:09:01;20.05;;;9.88;;
14052;SDS011;7101;51.600;7.310;2024-01-11T13:11:29;22.42;;;9.52;;
14052;SDS011;7101;51.600;7.310;2024-01-11T13:13:56;22.02;;;9.40;;
14052;SDS011;7101;51.600;7.310;2024-01-11T13:16:27;24.17;;;9.38;;
14052;SDS011;7101;51.600;7.310;2024-01-11T13:18:55;27.73;;;9.75;;
14052;SDS011;7101;51.600;7.310;2024-01-11T13:21:21;25.48;;;9.40;;
14052;SDS011;7101;51.600;7.310;2024-01-11T13:23:48;21.52;;;9.63;;
14052;SDS011;7101;51.600;7.310;2024-01-11T13:26:15;23.98;;;8.65;;
14052;SDS011;7101;51.600;7.310;2024-01-11T13:28:42;21.55;;;8.85;;
14052;SDS011;7101;51.600;7.310;2024-01-11T13:31:09;27.17;;;10.30;;
14052;SDS011;7101;51.600;7.310;2024-01-11T13:33:37;18.35;;;8.23;;
14052;SDS011;7101;51.600;7.310;2024-01-11T13:36:05;21.55;;;9.55;;
14052;SDS011;7101;51.600;7.310;2024-01-11T13:38:34;16.35;;;7.90;;
14052;SDS011;7101;51.600;7.310;2024-01-11T13:41:01;21.60;;;9.27;;
14052;SDS011;7101;51.600;7.310;2024-01-11T13:43:30;19.88;;;9.57;;
14052;SDS011;7101;51.600;7.310;2024-01-11T13:45:56;21.20;;;9.20;;
14052;SDS011;7101;51.600;7.310;2024-01-11T13:48:23;22.63;;;8.30;;
14052;SDS011;7101;51.600;7.310;2024-01-11T13:50:51;19.88;;;8.63;;
14052;SDS011;7101;51.600;7.310;2024-01-11T13:53:18;19.30;;;7.70;;
14052;SDS011;7101;51.600;7.310;2024-01-11T13:55:45;19.17;;;8.23;;
14052;SDS011;7101;51.600;7.310;2024-01-11T13:58:13;16.20;;;6.85;;
14052;SDS011;7101;51.600;7.310;2024-01-11T14:00:40;14.45;;;6.35;;
14052;SDS011;7101;51.600;7.310;2024-01-11T14:03:07;15.70;;;7.03;;
14052;SDS011;7101;51.600;7.310;2024-01-11T14:05:35;15.13;;;7.32;;
14052;SDS011;7101;51.600;7.310;2024-01-11T14:08:04;17.70;;;7.30;;
14052;SDS011;7101;51.600;7.310;2024-01-11T14:10:32;16.63;;;7.35;;
14052;SDS011;7101;51.600;7.310;2024-01-11T14:12:59;14.38;;;6.82;;
14052;SDS011;7101;51.600;7.310;2024-01-11T14:15:27;16.63;;;7.18;;
14052;SDS011;7101;51.600;7.310;2024-01-11T14:17:54;17.08;;;7.38;;
14052;SDS011;7101;51.600;7.310;2024-01-11T14:20:21;17.50;;;8.48;;
14052;SDS011;7101;51.600;7.310;2024-01-11T14:22:48;16.10;;;7.18;;
14052;SDS011;7101;51.600;7.310;2024-01-11T14:25:21;19.33;;;7.97;;
14052;SDS011;7101;51.600;7.310;2024-01-11T14:27:49;17.05;;;7.22;;
14052;SDS011;7101;51.600;7.310;2024-01-11T14:30:17;13.82;;;7.05;;
14052;SDS011;7101;51.600;7.310;2024-01-11T14:32:44;15.70;;;6.82;;
14052;SDS011;7101;51.600;7.310;2024-01-11T14:35:11;18.33;;;7.32;;
14052;SDS011;7101;51.600;7.310;2024-01-11T14:37:38;12.80;;;7.25;;